createdAt,value
2023-05-09T00:01:51.501Z,77.19
2023-05-09T00:04:24.923Z,79.17
2023-05-09T00:06:57.759Z,78.46
2023-05-09T00:09:30.692Z,75.74
2023-05-09T00:12:04.088Z,79.41
2023-05-09T00:14:39.105Z,76.89
2023-05-09T00:17:15.604Z,77.66
2023-05-09T00:19:48.644Z,78.37
2023-05-09T00:22:22.482Z,81.22
2023-05-09T00:24:55.500Z,76.95
2023-05-09T00:27:30.469Z,79.51
2023-05-09T00:30:06.063Z,78.35
2023-05-09T00:32:40.155Z,82.57
2023-05-09T00:35:13.319Z,81.31
2023-05-09T00:37:46.456Z,84.15
2023-05-09T00:40:19.397Z,82.16
2023-05-09T00:42:52.353Z,83.60
2023-05-09T00:45:26.800Z,82.08
2023-05-09T00:47:59.719Z,81.86
2023-05-09T00:50:32.833Z,84.73
2023-05-09T00:53:06.226Z,79.33
2023-05-09T00:55:39.123Z,81.46
2023-05-09T00:58:12.390Z,81.55
2023-05-09T01:00:49.603Z,83.92
2023-05-09T01:03:23.127Z,85.58
2023-05-09T01:06:01.514Z,82.15
2023-05-09T01:08:54.027Z,83.97
2023-05-09T01:11:33.138Z,80.10
2023-05-09T01:14:17.557Z,81.06
2023-05-09T01:17:01.835Z,82.47
2023-05-09T01:19:58.266Z,84.52
2023-05-09T01:22:35.854Z,84.52
2023-05-09T01:25:35.932Z,83.59
2023-05-09T01:28:15.323Z,81.34
2023-05-09T01:30:52.714Z,82.71
2023-05-09T01:33:27.892Z,81.29
2023-05-09T01:36:05.344Z,82.13
2023-05-09T01:38:39.589Z,81.52
2023-05-09T01:41:16.633Z,83.59
2023-05-09T01:43:50.589Z,84.51
2023-05-09T01:46:26.740Z,84.40
2023-05-09T01:49:01.415Z,86.30
2023-05-09T01:51:36.166Z,85.01
2023-05-09T01:54:08.922Z,84.40
2023-05-09T01:56:44.114Z,83.81
2023-05-09T01:59:17.833Z,86.95
2023-05-09T02:01:53.012Z,80.15
2023-05-09T02:04:27.006Z,81.24
2023-05-09T02:07:02.029Z,81.48
2023-05-09T02:09:34.880Z,82.62
2023-05-09T02:12:08.349Z,86.04
2023-05-09T02:14:41.158Z,84.64
2023-05-09T02:17:16.983Z,82.80
2023-05-09T02:19:49.862Z,84.94
2023-05-09T02:22:23.025Z,84.89
2023-05-09T02:24:56.258Z,85.80
2023-05-09T02:27:29.303Z,86.59
2023-05-09T02:30:07.363Z,85.45
2023-05-09T02:32:44.504Z,84.08
2023-05-09T02:35:19.355Z,82.40
2023-05-09T02:37:53.412Z,84.26
2023-05-09T02:40:28.076Z,83.79
2023-05-09T02:43:00.733Z,84.87
2023-05-09T02:45:33.911Z,85.36
2023-05-09T02:48:10.113Z,85.58
2023-05-09T02:50:43.381Z,87.36
2023-05-09T02:53:16.368Z,88.20
2023-05-09T02:55:49.172Z,83.83
2023-05-09T02:58:22.492Z,84.21
2023-05-09T03:00:55.823Z,87.46
2023-05-09T03:03:30.776Z,87.13
2023-05-09T03:06:03.829Z,86.85
2023-05-09T03:08:36.661Z,86.87
2023-05-09T03:11:09.764Z,89.14
2023-05-09T03:13:42.961Z,87.92
2023-05-09T03:16:18.785Z,86.54
2023-05-09T03:18:53.146Z,86.44
2023-05-09T03:21:26.275Z,89.48
2023-05-09T03:23:59.381Z,89.35
2023-05-09T03:26:32.238Z,89.23
2023-05-09T03:29:05.603Z,90.47
2023-05-09T03:31:38.508Z,90.43
2023-05-09T03:34:15.210Z,88.94
2023-05-09T03:36:49.474Z,90.24
2023-05-09T03:39:22.317Z,89.65
2023-05-09T03:42:00.194Z,88.36
2023-05-09T03:44:33.513Z,90.06
2023-05-09T03:47:06.693Z,89.76
2023-05-09T03:49:46.235Z,89.86
2023-05-09T03:52:21.175Z,87.53
2023-05-09T03:54:54.750Z,88.88
2023-05-09T03:57:27.840Z,87.44
2023-05-09T04:00:03.451Z,88.11
2023-05-09T04:02:48.496Z,88.56
2023-05-09T04:05:33.470Z,89.11
2023-05-09T04:08:06.808Z,88.80
2023-05-09T04:10:39.959Z,88.29
2023-05-09T04:13:12.942Z,87.09
2023-05-09T04:15:46.299Z,89.59
2023-05-09T04:18:19.702Z,89.13
2023-05-09T04:20:54.055Z,88.69
2023-05-09T04:23:27.425Z,88.93
2023-05-09T04:26:03.633Z,88.97
2023-05-09T04:28:36.665Z,87.42
2023-05-09T04:31:09.527Z,89.85
2023-05-09T04:33:42.535Z,88.66
2023-05-09T04:36:17.061Z,87.68
2023-05-09T04:38:50.484Z,87.24
2023-05-09T04:41:28.647Z,88.51
2023-05-09T04:44:01.913Z,88.39
2023-05-09T04:46:34.808Z,88.64
2023-05-09T04:49:08.829Z,89.22
2023-05-09T04:51:43.072Z,89.52
2023-05-09T04:54:15.937Z,89.47
2023-05-09T04:56:50.623Z,86.93
2023-05-09T04:59:24.015Z,88.93
2023-05-09T05:01:56.877Z,88.78
2023-05-09T05:04:29.900Z,87.67
2023-05-09T05:07:05.119Z,88.15
2023-05-09T05:09:38.539Z,88.19
2023-05-09T05:12:11.548Z,89.44
2023-05-09T05:14:46.001Z,89.74
2023-05-09T05:17:24.667Z,89.15
2023-05-09T05:19:58.640Z,89.10
2023-05-09T05:22:35.740Z,88.64
2023-05-09T05:25:09.654Z,88.83
2023-05-09T05:27:43.848Z,87.07
2023-05-09T05:30:18.209Z,87.99
2023-05-09T05:32:51.593Z,89.02
2023-05-09T05:35:28.174Z,88.55
2023-05-09T05:38:03.553Z,89.20
2023-05-09T05:40:36.641Z,89.35
2023-05-09T05:43:11.813Z,89.04
2023-05-09T05:45:45.361Z,88.63
2023-05-09T05:48:22.547Z,89.47
2023-05-09T05:50:55.586Z,89.56
2023-05-09T05:53:33.348Z,89.03
2023-05-09T05:56:06.654Z,87.85
2023-05-09T05:58:39.555Z,88.33
2023-05-09T06:01:13.824Z,88.93
2023-05-09T06:03:46.759Z,88.19
2023-05-09T06:06:19.875Z,88.61
2023-05-09T06:08:55.380Z,87.00
2023-05-09T06:11:27.970Z,89.29
2023-05-09T06:14:00.769Z,88.63
2023-05-09T06:16:33.844Z,87.47
2023-05-09T06:19:06.663Z,88.64
2023-05-09T06:21:39.467Z,89.49
2023-05-09T06:24:20.161Z,88.31
2023-05-09T06:27:00.743Z,87.68
2023-05-09T06:29:33.617Z,88.05
2023-05-09T06:32:06.457Z,87.59
2023-05-09T06:34:39.296Z,87.09
2023-05-09T06:37:12.680Z,87.49
2023-05-09T06:39:46.988Z,87.50
2023-05-09T06:42:19.790Z,87.31
2023-05-09T06:44:52.588Z,87.13
2023-05-09T06:47:25.588Z,86.74
2023-05-09T06:49:58.348Z,85.72
2023-05-09T06:52:41.350Z,86.13
2023-05-09T06:55:14.297Z,84.71
2023-05-09T06:57:48.000Z,86.09
2023-05-09T07:00:23.250Z,82.95
2023-05-09T07:02:56.252Z,84.03
2023-05-09T07:05:29.259Z,83.74
2023-05-09T07:08:04.023Z,84.36
2023-05-09T07:10:36.782Z,82.83
2023-05-09T07:13:09.632Z,84.45
2023-05-09T07:15:43.298Z,82.80
2023-05-09T07:18:16.333Z,83.81
2023-05-09T07:20:49.217Z,83.20
2023-05-09T07:23:23.339Z,82.79
2023-05-09T07:26:00.009Z,83.24
2023-05-09T07:28:32.844Z,82.21
2023-05-09T07:31:06.414Z,82.25
2023-05-09T07:33:39.354Z,82.32
2023-05-09T07:36:13.576Z,81.55
2023-05-09T07:38:50.436Z,80.78
2023-05-09T07:41:23.533Z,80.73
2023-05-09T07:43:56.331Z,81.20
2023-05-09T07:46:29.190Z,79.68
2023-05-09T07:49:02.137Z,79.30
2023-05-09T07:51:35.558Z,80.44
2023-05-09T07:54:10.175Z,78.93
2023-05-09T07:56:43.254Z,78.07
2023-05-09T07:59:16.972Z,78.41
2023-05-09T08:01:49.758Z,77.18
2023-05-09T08:04:22.576Z,77.30
2023-05-09T08:06:55.999Z,76.00
2023-05-09T08:09:30.331Z,74.85
2023-05-09T08:12:03.179Z,74.81
2023-05-09T08:14:36.101Z,74.44
2023-05-09T08:17:08.873Z,73.03
2023-05-09T08:19:41.736Z,74.22
2023-05-09T08:22:18.425Z,72.91
2023-05-09T08:24:52.622Z,70.77
2023-05-09T08:27:25.566Z,70.79
2023-05-09T08:29:58.440Z,68.50
2023-05-09T08:32:31.590Z,69.33
2023-05-09T08:35:04.943Z,69.46
2023-05-09T08:37:38.121Z,70.19
2023-05-09T08:40:13.080Z,69.46
2023-05-09T08:42:46.779Z,67.99
2023-05-09T08:45:26.626Z,69.18
2023-05-09T08:48:00.487Z,68.38
2023-05-09T08:50:35.473Z,68.28
2023-05-09T08:53:08.626Z,68.25
2023-05-09T08:55:43.198Z,66.80
2023-05-09T08:58:16.622Z,66.85
2023-05-09T09:00:51.200Z,66.71
2023-05-09T09:03:24.914Z,67.39
2023-05-09T09:05:59.442Z,65.68
2023-05-09T09:08:32.787Z,67.21
2023-05-09T09:11:07.682Z,66.45
2023-05-09T09:13:42.065Z,64.15
2023-05-09T09:16:24.841Z,66.56
2023-05-09T09:18:59.260Z,65.22
2023-05-09T09:21:33.134Z,64.10
2023-05-09T09:24:08.676Z,63.30
2023-05-09T09:26:48.032Z,64.09
2023-05-09T09:29:22.764Z,64.62
2023-05-09T09:31:55.822Z,63.84
2023-05-09T09:34:28.978Z,63.58
2023-05-09T09:37:01.780Z,61.39
2023-05-09T09:39:34.505Z,60.46
2023-05-09T09:42:15.383Z,61.54
2023-05-09T09:44:52.947Z,59.01
2023-05-09T09:47:32.938Z,59.82
2023-05-09T09:50:13.902Z,59.84
2023-05-09T09:52:51.388Z,57.13
2023-05-09T09:55:25.348Z,55.93
2023-05-09T09:58:00.190Z,55.27
2023-05-09T10:00:33.106Z,54.62
2023-05-09T10:03:06.076Z,55.77
2023-05-09T10:05:40.729Z,55.36
2023-05-09T10:08:13.617Z,54.81
2023-05-09T10:10:46.599Z,54.94
2023-05-09T10:13:21.794Z,55.34
2023-05-09T10:15:56.035Z,55.74
2023-05-09T10:18:30.644Z,55.77
2023-05-09T10:21:05.128Z,55.07
2023-05-09T10:23:38.982Z,55.50
2023-05-09T10:26:18.205Z,53.60
2023-05-09T10:28:56.064Z,53.57
2023-05-09T10:31:30.005Z,51.97
2023-05-09T10:34:06.692Z,51.57
2023-05-09T10:36:39.550Z,51.64
2023-05-09T10:39:12.455Z,50.34
2023-05-09T10:41:49.644Z,51.84
2023-05-09T10:44:24.416Z,50.90
2023-05-09T10:46:57.837Z,49.17
2023-05-09T10:49:31.750Z,48.88
2023-05-09T10:52:04.815Z,48.06
2023-05-09T10:54:38.215Z,47.00
2023-05-09T10:57:11.128Z,45.79
2023-05-09T10:59:46.411Z,46.45
2023-05-09T11:02:21.376Z,45.93
2023-05-09T11:05:14.950Z,44.86
2023-05-09T11:07:48.154Z,45.56
2023-05-09T11:10:21.003Z,45.32
2023-05-09T11:12:57.557Z,44.49
2023-05-09T11:15:33.063Z,44.55
2023-05-09T11:18:07.806Z,46.43
2023-05-09T11:20:45.121Z,46.02
2023-05-09T11:23:19.786Z,45.53
2023-05-09T11:25:53.607Z,48.12
2023-05-09T11:28:30.827Z,44.96
2023-05-09T11:31:15.338Z,44.30
2023-05-09T11:33:58.108Z,44.63
2023-05-09T11:36:33.403Z,45.56
2023-05-09T11:39:07.954Z,48.73
2023-05-09T11:41:41.674Z,45.72
2023-05-09T11:44:16.483Z,48.21
2023-05-09T11:46:50.920Z,47.12
2023-05-09T11:49:24.342Z,47.48
2023-05-09T11:52:00.615Z,47.56
2023-05-09T11:54:33.417Z,46.85
2023-05-09T11:57:06.544Z,45.92
2023-05-09T11:59:39.568Z,45.67
2023-05-09T12:02:14.146Z,46.25
2023-05-09T12:04:46.979Z,46.21
2023-05-09T12:07:20.538Z,45.96
2023-05-09T12:09:53.427Z,45.70
2023-05-09T12:12:26.278Z,44.40
2023-05-09T12:15:04.376Z,46.49
2023-05-09T12:17:38.677Z,46.08
2023-05-09T12:20:11.642Z,45.66
2023-05-09T12:22:44.989Z,44.41
2023-05-09T12:25:18.201Z,42.44
2023-05-09T12:27:54.384Z,43.47
2023-05-09T12:30:27.630Z,42.71
2023-05-09T12:33:02.046Z,44.26
2023-05-09T12:35:35.375Z,42.88
2023-05-09T12:38:08.651Z,44.24
2023-05-09T12:40:41.887Z,44.08
2023-05-09T12:43:14.897Z,44.30
2023-05-09T12:45:53.627Z,44.09
2023-05-09T12:48:27.983Z,43.20
2023-05-09T12:51:03.458Z,43.55
2023-05-09T12:53:39.781Z,43.49
2023-05-09T12:56:15.608Z,42.27
2023-05-09T12:58:52.664Z,41.76
2023-05-09T13:01:30.328Z,41.82
2023-05-09T13:04:06.354Z,41.53
2023-05-09T13:06:49.093Z,38.73
2023-05-09T13:09:22.544Z,40.43
2023-05-09T13:11:55.328Z,38.48
2023-05-09T13:14:28.376Z,38.64
2023-05-09T13:17:01.280Z,41.04
2023-05-09T13:19:39.345Z,40.05
2023-05-09T13:22:12.613Z,39.70
2023-05-09T13:24:45.684Z,40.69
2023-05-09T13:27:18.652Z,39.26
2023-05-09T13:29:51.445Z,40.16
2023-05-09T13:32:24.790Z,39.87
2023-05-09T13:34:59.081Z,40.77
2023-05-09T13:37:31.702Z,39.26
2023-05-09T13:40:05.365Z,40.27
2023-05-09T13:42:38.793Z,39.76
2023-05-09T13:45:12.588Z,40.31
2023-05-09T13:47:45.521Z,42.12
2023-05-09T13:50:19.667Z,40.69
2023-05-09T13:52:52.742Z,40.68
2023-05-09T13:55:26.848Z,41.08
2023-05-09T13:57:59.606Z,41.77
2023-05-09T14:00:32.475Z,41.65
2023-05-09T14:03:05.657Z,40.60
2023-05-09T14:05:39.813Z,41.53
2023-05-09T14:08:12.525Z,40.50
2023-05-09T14:10:45.438Z,43.32
2023-05-09T14:13:18.235Z,42.84
2023-05-09T14:15:51.195Z,42.94
2023-05-09T14:18:24.014Z,43.19
2023-05-09T14:20:58.650Z,46.28
2023-05-09T14:23:31.316Z,54.00
2023-05-09T14:26:04.185Z,55.35
2023-05-09T14:28:37.341Z,57.13
2023-05-09T14:31:10.130Z,57.35
2023-05-09T14:33:42.946Z,59.77
2023-05-09T14:36:17.453Z,60.03
2023-05-09T14:38:50.219Z,60.63
2023-05-09T14:41:23.257Z,61.42
2023-05-09T14:43:56.053Z,60.39
2023-05-09T14:46:28.895Z,61.85
2023-05-09T14:49:04.128Z,61.81
2023-05-09T14:51:38.406Z,64.21
2023-05-09T14:54:10.995Z,64.78
2023-05-09T14:56:43.860Z,63.08
2023-05-09T14:59:16.784Z,64.17
2023-05-09T15:01:50.855Z,63.58
2023-05-09T15:04:25.351Z,65.47
2023-05-09T15:06:59.649Z,67.26
2023-05-09T15:09:32.260Z,70.19
2023-05-09T15:12:05.483Z,70.24
2023-05-09T15:14:39.407Z,68.90
2023-05-09T15:17:12.286Z,68.89
2023-05-09T15:19:45.154Z,70.99
2023-05-09T15:22:19.299Z,71.13
2023-05-09T15:24:52.086Z,70.65
2023-05-09T15:27:24.875Z,70.24
2023-05-09T15:29:57.717Z,70.80
2023-05-09T15:32:30.622Z,71.12
2023-05-09T15:35:03.458Z,73.57
2023-05-09T15:37:38.319Z,71.07
2023-05-09T15:40:11.965Z,72.08
2023-05-09T15:42:45.186Z,73.04
2023-05-09T15:45:18.147Z,71.66
2023-05-09T15:47:51.170Z,72.28
2023-05-09T15:50:24.011Z,72.14
2023-05-09T15:52:58.128Z,74.97
2023-05-09T15:55:33.133Z,76.39
2023-05-09T15:58:05.970Z,76.11
2023-05-09T16:00:39.674Z,75.94
2023-05-09T16:03:13.076Z,74.45
2023-05-09T16:05:46.339Z,74.55
2023-05-09T16:08:21.021Z,76.36
2023-05-09T16:11:14.991Z,75.97
2023-05-09T16:13:47.825Z,76.09
2023-05-09T16:16:20.708Z,79.17
2023-05-09T16:18:53.690Z,78.94
2023-05-09T16:21:29.095Z,79.17
2023-05-09T16:24:04.710Z,76.61
2023-05-09T16:26:37.627Z,77.34
2023-05-09T16:29:12.585Z,78.68
2023-05-09T16:31:45.791Z,80.45
2023-05-09T16:34:18.900Z,82.22
2023-05-09T16:36:52.221Z,81.82
2023-05-09T16:39:27.878Z,79.98
2023-05-09T16:42:01.090Z,81.74
2023-05-09T16:44:34.513Z,81.30
2023-05-09T16:47:07.500Z,82.65
2023-05-09T16:49:41.004Z,82.68
2023-05-09T16:52:13.861Z,82.79
2023-05-09T16:54:49.063Z,81.38
2023-05-09T16:57:22.346Z,81.78
2023-05-09T16:59:55.579Z,82.35
2023-05-09T17:02:28.534Z,82.16
2023-05-09T17:05:01.322Z,83.28
2023-05-09T17:07:34.214Z,82.59
2023-05-09T17:10:09.678Z,80.53
2023-05-09T17:12:42.886Z,83.17
2023-05-09T17:15:15.790Z,82.40
2023-05-09T17:17:49.032Z,78.76
2023-05-09T17:20:21.872Z,80.00
2023-05-09T17:22:54.815Z,79.85
2023-05-09T17:25:29.370Z,80.29
2023-05-09T17:28:02.067Z,81.65
2023-05-09T17:30:34.866Z,81.68
2023-05-09T17:33:08.194Z,82.54
2023-05-09T17:35:41.289Z,76.07
2023-05-09T17:38:14.424Z,80.48
2023-05-09T17:40:49.031Z,80.20
2023-05-09T17:43:23.979Z,81.08
2023-05-09T17:45:57.362Z,81.82
2023-05-09T17:48:32.325Z,80.92
2023-05-09T17:51:05.797Z,82.59
2023-05-09T17:53:38.595Z,81.52
2023-05-09T17:56:12.957Z,76.71
2023-05-09T17:58:47.058Z,79.09
2023-05-09T18:01:21.674Z,81.17
2023-05-09T18:03:54.921Z,81.80
2023-05-09T18:06:29.197Z,82.39
2023-05-09T18:09:02.788Z,81.17
2023-05-09T18:11:37.551Z,79.05
2023-05-09T18:14:10.852Z,74.72
2023-05-09T18:16:43.664Z,80.07
2023-05-09T18:19:16.566Z,81.43
2023-05-09T18:21:49.417Z,81.54
2023-05-09T18:24:23.156Z,80.18
2023-05-09T18:26:57.946Z,78.97
2023-05-09T18:29:30.919Z,79.91
2023-05-09T18:32:03.754Z,83.51
2023-05-09T18:34:36.739Z,84.71
2023-05-09T18:37:10.222Z,80.84
2023-05-09T18:39:43.103Z,81.39
2023-05-09T18:42:17.285Z,81.45
2023-05-09T18:44:50.460Z,82.97
2023-05-09T18:47:24.829Z,80.87
2023-05-09T18:49:58.214Z,83.19
2023-05-09T18:52:32.673Z,84.57
2023-05-09T18:55:06.805Z,81.50
2023-05-09T18:57:41.462Z,84.73
2023-05-09T19:00:15.237Z,78.32
2023-05-09T19:02:48.366Z,76.05
2023-05-09T19:05:22.505Z,80.14
2023-05-09T19:07:58.084Z,85.68
2023-05-09T19:10:30.896Z,84.66
2023-05-09T19:13:05.953Z,83.31
2023-05-09T19:15:39.066Z,82.11
2023-05-09T19:18:12.120Z,82.50
2023-05-09T19:20:44.997Z,83.09
2023-05-09T19:23:18.194Z,82.38
2023-05-09T19:25:53.748Z,81.40
2023-05-09T19:28:28.453Z,79.73
2023-05-09T19:31:01.313Z,82.83
2023-05-09T19:33:34.725Z,83.46
2023-05-09T19:36:07.957Z,85.83
2023-05-09T19:38:41.018Z,84.10
2023-05-09T19:41:14.836Z,83.66
2023-05-09T19:43:51.130Z,85.17
2023-05-09T19:46:24.025Z,85.07
2023-05-09T19:48:56.935Z,83.53
2023-05-09T19:51:29.879Z,79.98
2023-05-09T19:54:03.407Z,83.11
2023-05-09T19:56:36.190Z,83.95
2023-05-09T19:59:10.303Z,85.79
2023-05-09T20:01:43.218Z,82.62
2023-05-09T20:04:16.395Z,81.81
2023-05-09T20:06:49.253Z,83.28
2023-05-09T20:09:22.044Z,81.92
2023-05-09T20:11:54.853Z,83.27
2023-05-09T20:14:29.075Z,84.67
2023-05-09T20:17:02.422Z,85.77
2023-05-09T20:19:35.507Z,85.02
2023-05-09T20:22:08.943Z,84.39
2023-05-09T20:24:42.145Z,83.92
2023-05-09T20:27:15.036Z,80.10
2023-05-09T20:29:49.182Z,81.42
2023-05-09T20:32:22.350Z,84.58
2023-05-09T20:34:55.293Z,83.75
2023-05-09T20:37:28.151Z,85.15
2023-05-09T20:40:02.380Z,84.40
2023-05-09T20:42:35.602Z,84.97
2023-05-09T20:45:11.215Z,85.48
2023-05-09T20:47:44.103Z,86.80
2023-05-09T20:50:17.999Z,87.26
2023-05-09T20:52:51.084Z,87.14
2023-05-09T20:55:24.069Z,87.02
2023-05-09T20:57:56.902Z,84.04
2023-05-09T21:00:31.283Z,83.07
2023-05-09T21:03:04.426Z,86.55
2023-05-09T21:05:37.320Z,88.16
2023-05-09T21:08:10.278Z,89.58
2023-05-09T21:10:43.153Z,90.25
2023-05-09T21:13:16.078Z,86.61
2023-05-09T21:15:51.080Z,89.89
2023-05-09T21:18:23.932Z,86.58
2023-05-09T21:20:56.872Z,86.20
2023-05-09T21:23:29.780Z,87.95
2023-05-09T21:26:03.313Z,87.25
2023-05-09T21:28:36.141Z,87.38
2023-05-09T21:31:11.464Z,88.72
2023-05-09T21:33:44.535Z,89.46
2023-05-09T21:36:17.351Z,90.43
2023-05-09T21:38:50.158Z,91.00
2023-05-09T21:41:22.984Z,90.42
2023-05-09T21:43:55.991Z,89.26
2023-05-09T21:46:32.448Z,89.03
2023-05-09T21:49:05.294Z,89.74
2023-05-09T21:51:38.110Z,88.25
2023-05-09T21:54:11.713Z,89.71
2023-05-09T21:56:44.601Z,88.30
2023-05-09T21:59:20.680Z,87.43
2023-05-09T22:01:55.018Z,88.29
2023-05-09T22:04:27.843Z,88.65
2023-05-09T22:07:00.643Z,88.29
2023-05-09T22:09:33.452Z,85.91
2023-05-09T22:12:06.624Z,89.69
2023-05-09T22:14:52.720Z,92.47
2023-05-09T22:17:30.287Z,90.06
2023-05-09T22:20:03.113Z,90.17
2023-05-09T22:22:36.090Z,91.00
2023-05-09T22:25:09.640Z,92.23
2023-05-09T22:27:42.779Z,91.61
2023-05-09T22:30:16.111Z,92.06
2023-05-09T22:32:50.825Z,92.28
2023-05-09T22:35:23.931Z,92.07
2023-05-09T22:37:56.819Z,92.85
2023-05-09T22:40:30.888Z,92.50
2023-05-09T22:43:03.874Z,92.89
2023-05-09T22:45:37.032Z,92.00
2023-05-09T22:48:11.244Z,92.73
2023-05-09T22:50:44.222Z,93.09
2023-05-09T22:53:17.566Z,92.75
2023-05-09T22:55:52.438Z,93.91
2023-05-09T22:58:26.319Z,93.66
2023-05-09T23:00:59.194Z,93.17
2023-05-09T23:03:33.343Z,93.40
2023-05-09T23:06:06.292Z,94.20
2023-05-09T23:08:39.090Z,93.99
2023-05-09T23:11:12.334Z,93.41
2023-05-09T23:13:45.122Z,92.19
2023-05-09T23:16:17.967Z,93.07
2023-05-09T23:18:52.180Z,93.77
2023-05-09T23:21:25.111Z,93.11
2023-05-09T23:23:58.012Z,93.67
2023-05-09T23:26:30.769Z,95.05
2023-05-09T23:29:03.561Z,95.08
2023-05-09T23:31:36.505Z,95.37
2023-05-09T23:34:10.729Z,94.36
2023-05-09T23:36:43.694Z,94.97
2023-05-09T23:39:16.971Z,94.24
2023-05-09T23:41:49.742Z,92.84
2023-05-09T23:44:22.539Z,94.91
2023-05-09T23:46:55.432Z,94.61
2023-05-09T23:49:29.614Z,94.09
2023-05-09T23:52:02.385Z,94.25
2023-05-09T23:54:35.248Z,94.95
2023-05-09T23:57:08.176Z,95.88
2023-05-09T23:59:42.543Z,96.74
